Time;durP1;ratioP1;P1;durP2;ratioP2;P2;SDS_P1;SDS_P2;PMS_P1;PMS_P2;Temp;Humidity;BMP_temperature;BMP_pressure;BME280_temperature;BME280_humidity;BME280_pressure;Samples;Min_cycle;Max_cycle;Signal;HPM_P1;HPM_P2
2022/10/09 00:00:12;;;;;;;;;;;8.30;99.90;;;;;;5094056;28;20007;-74
2022/10/09 00:02:37;;;;;;;;;;;8.30;99.90;;;;;;5072549;28;20011;-74
2022/10/09 00:05:03;;;;;;;;;;;8.30;99.90;;;;;;5098400;28;19912;-74
2022/10/09 00:07:29;;;;;;;;;;;8.20;99.90;;;;;;5092700;28;20285;-74
2022/10/09 00:09:54;;;;;;;;;;;8.20;99.90;;;;;;5069714;28;20339;-74
2022/10/09 00:12:20;;;;;;;;;;;8.10;99.90;;;;;;5092558;28;19912;-74
2022/10/09 00:14:45;;;;;;;;;;;8.10;99.90;;;;;;5100624;28;19919;-74
2022/10/09 00:17:11;;;;;;;;;;;8.10;99.90;;;;;;5095768;28;19954;-74
2022/10/09 00:19:36;;;;;;;;;;;8.10;99.90;;;;;;5088717;28;19931;-74
2022/10/09 00:22:02;;;;;;;;;;;8.10;99.90;;;;;;5091621;28;19923;-74
2022/10/09 00:24:27;;;;;;;;;;;8.10;99.90;;;;;;5093521;28;19916;-74
2022/10/09 00:26:53;;;;;;;;;;;8.10;99.90;;;;;;5076980;28;20196;-74
2022/10/09 00:29:18;;;;;;;;;;;8.00;99.90;;;;;;5077977;28;20298;-74
2022/10/09 00:31:44;;;;;;;;;;;8.00;99.90;;;;;;5092430;28;19958;-74
2022/10/09 00:34:09;;;;;;;;;;;8.00;99.90;;;;;;5091554;28;19913;-74
2022/10/09 00:36:35;;;;;;;;;;;8.00;99.90;;;;;;5088799;28;19919;-74
2022/10/09 00:39:01;;;;;;;;;;;8.00;99.90;;;;;;5100330;28;19912;-74
2022/10/09 00:41:28;;;;;;;;;;;7.90;99.90;;;;;;5089715;28;19916;-75
2022/10/09 00:43:58;;;;;;;;;;;7.80;99.90;;;;;;5090972;28;20621;-75
2022/10/09 00:46:35;;;;;;;;;;;7.90;99.90;;;;;;5095734;28;19920;-75
2022/10/09 00:49:06;;;;;;;;;;;7.90;99.90;;;;;;5073220;28;19976;-75
2022/10/09 00:51:33;;;;;;;;;;;7.90;99.90;;;;;;5081060;28;20342;-75
2022/10/09 00:54:00;;;;;;;;;;;7.90;99.90;;;;;;5090323;28;19916;-75
2022/10/09 00:56:26;;;;;;;;;;;7.80;99.90;;;;;;5068210;28;20253;-75
2022/10/09 00:58:53;;;;;;;;;;;7.70;99.90;;;;;;5067078;28;20014;-74
2022/10/09 01:01:19;;;;;;;;;;;7.70;99.90;;;;;;5088147;28;19912;-75
2022/10/09 01:03:44;;;;;;;;;;;7.70;99.90;;;;;;5092349;28;20269;-75
2022/10/09 01:06:10;;;;;;;;;;;7.70;99.90;;;;;;5089428;28;19912;-75
2022/10/09 01:08:35;;;;;;;;;;;7.70;99.90;;;;;;5090808;28;19912;-75
2022/10/09 01:11:08;;;;;;;;;;;7.70;99.90;;;;;;5072856;28;19955;-74
2022/10/09 01:13:37;;;;;;;;;;;7.60;99.90;;;;;;5097671;28;19916;-75
2022/10/09 01:16:08;;;;;;;;;;;7.50;99.90;;;;;;5093951;28;20016;-75
2022/10/09 01:18:42;;;;;;;;;;;7.40;99.90;;;;;;5089641;28;20197;-74
2022/10/09 01:21:18;;;;;;;;;;;7.50;99.90;;;;;;5091203;28;19920;-75
2022/10/09 01:23:57;;;;;;;;;;;7.40;99.90;;;;;;5092611;28;19923;-75
2022/10/09 01:26:30;;;;;;;;;;;7.40;99.90;;;;;;5092488;28;19920;-75
2022/10/09 01:28:57;;;;;;;;;;;7.40;99.90;;;;;;5091034;28;19912;-76
2022/10/09 01:31:25;;;;;;;;;;;7.40;99.90;;;;;;5092940;28;20304;-75
2022/10/09 01:33:50;;;;;;;;;;;7.30;99.90;;;;;;5093511;28;19912;-76
2022/10/09 01:36:17;;;;;;;;;;;7.40;99.90;;;;;;5067534;28;19912;-75
2022/10/09 01:38:43;;;;;;;;;;;7.40;99.90;;;;;;5094335;28;19916;-75
2022/10/09 01:41:08;;;;;;;;;;;7.50;99.90;;;;;;5093502;28;19916;-75
2022/10/09 01:43:34;;;;;;;;;;;7.40;99.90;;;;;;5071848;28;19916;-75
2022/10/09 01:46:20;;;;;;;;;;;7.40;99.90;;;;;;5090969;28;19926;-76
2022/10/09 01:48:54;;;;;;;;;;;7.30;99.90;;;;;;5096031;28;19931;-75
2022/10/09 01:51:22;;;;;;;;;;;7.20;99.90;;;;;;5099810;28;20214;-75
2022/10/09 01:53:50;;;;;;;;;;;7.20;99.90;;;;;;5074525;28;20281;-76
2022/10/09 01:56:18;;;;;;;;;;;7.20;99.90;;;;;;5093008;28;19920;-75
2022/10/09 01:58:47;;;;;;;;;;;7.10;99.90;;;;;;5087240;28;20117;-75
2022/10/09 02:01:17;;;;;;;;;;;7.10;99.90;;;;;;5080989;28;20250;-75
2022/10/09 02:03:45;;;;;;;;;;;7.10;99.90;;;;;;5075191;28;20219;-75
2022/10/09 02:06:12;;;;;;;;;;;7.10;99.90;;;;;;5093796;28;19926;-75
2022/10/09 02:08:38;;;;;;;;;;;7.10;99.90;;;;;;5097373;28;20174;-74
2022/10/09 02:11:04;;;;;;;;;;;7.00;99.90;;;;;;5101070;28;19930;-74
2022/10/09 02:13:31;;;;;;;;;;;7.00;99.90;;;;;;5099234;28;19915;-74
2022/10/09 02:16:11;;;;;;;;;;;7.00;99.90;;;;;;5076893;28;20369;-74
2022/10/09 02:18:39;;;;;;;;;;;7.10;99.90;;;;;;5081759;28;19912;-74
2022/10/09 02:21:11;;;;;;;;;;;7.10;99.90;;;;;;5066760;28;19915;-75
2022/10/09 02:23:39;;;;;;;;;;;7.20;99.90;;;;;;5062000;28;20332;-75
2022/10/09 02:26:04;;;;;;;;;;;7.20;99.90;;;;;;5093125;28;19913;-74
2022/10/09 02:28:30;;;;;;;;;;;7.30;99.90;;;;;;5096761;28;19915;-75
2022/10/09 02:31:00;;;;;;;;;;;7.30;99.90;;;;;;5098345;28;20498;-75
2022/10/09 02:33:26;;;;;;;;;;;7.30;99.90;;;;;;5097874;28;19962;-75
2022/10/09 02:35:52;;;;;;;;;;;7.30;99.90;;;;;;5075969;28;19927;-74
2022/10/09 02:38:17;;;;;;;;;;;7.30;99.90;;;;;;5089205;28;19919;-75
2022/10/09 02:40:43;;;;;;;;;;;7.30;99.90;;;;;;5100956;28;20226;-74
2022/10/09 02:43:08;;;;;;;;;;;7.10;99.90;;;;;;5090662;28;19916;-75
2022/10/09 02:45:34;;;;;;;;;;;7.20;99.90;;;;;;5096595;28;19912;-75
2022/10/09 02:47:59;;;;;;;;;;;7.20;99.90;;;;;;5097600;28;19927;-76
2022/10/09 02:50:25;;;;;;;;;;;7.10;99.90;;;;;;5082201;28;19914;-74
2022/10/09 02:52:51;;;;;;;;;;;7.10;99.90;;;;;;5104490;28;19998;-74
2022/10/09 02:55:16;;;;;;;;;;;7.10;99.90;;;;;;5099431;28;20657;-75
2022/10/09 02:57:42;;;;;;;;;;;7.10;99.90;;;;;;5084770;28;19919;-74
2022/10/09 03:00:08;;;;;;;;;;;7.00;99.90;;;;;;5098651;28;19931;-75
2022/10/09 03:02:33;;;;;;;;;;;7.00;99.90;;;;;;5091258;28;19912;-75
2022/10/09 03:04:59;;;;;;;;;;;6.90;99.90;;;;;;5087976;28;19912;-75
2022/10/09 03:07:24;;;;;;;;;;;6.90;99.90;;;;;;5095076;28;20014;-75
2022/10/09 03:09:50;;;;;;;;;;;6.90;99.90;;;;;;5068016;28;20051;-74
2022/10/09 03:12:20;;;;;;;;;;;6.90;99.90;;;;;;5079121;28;19912;-75
2022/10/09 03:14:45;;;;;;;;;;;6.80;99.90;;;;;;5098418;28;20030;-75
2022/10/09 03:17:11;;;;;;;;;;;6.80;99.90;;;;;;5077250;28;20278;-75
2022/10/09 03:19:36;;;;;;;;;;;6.70;99.90;;;;;;5095655;28;19919;-75
2022/10/09 03:22:02;;;;;;;;;;;6.70;99.90;;;;;;5099270;28;20003;-74
2022/10/09 03:24:27;;;;;;;;;;;6.70;99.90;;;;;;5094981;28;19927;-75
2022/10/09 03:26:53;;;;;;;;;;;6.80;99.90;;;;;;5102834;28;19923;-75
2022/10/09 03:29:18;;;;;;;;;;;6.70;99.90;;;;;;5092177;28;19997;-75
2022/10/09 03:31:44;;;;;;;;;;;6.70;99.90;;;;;;5100849;28;19919;-75
2022/10/09 03:34:10;;;;;;;;;;;6.60;99.90;;;;;;5103301;28;19920;-75
2022/10/09 03:36:36;;;;;;;;;;;6.60;99.90;;;;;;5108112;28;20211;-74
2022/10/09 03:39:01;;;;;;;;;;;6.50;99.90;;;;;;5096403;28;19916;-75
2022/10/09 03:41:27;;;;;;;;;;;6.50;99.90;;;;;;5101698;28;20356;-74
2022/10/09 03:43:52;;;;;;;;;;;6.50;99.90;;;;;;5106410;28;19958;-75
2022/10/09 03:46:18;;;;;;;;;;;6.50;99.90;;;;;;5092394;28;20412;-74
2022/10/09 03:48:43;;;;;;;;;;;6.50;99.90;;;;;;5076446;28;19924;-75
2022/10/09 03:51:09;;;;;;;;;;;6.50;99.90;;;;;;5078488;28;19916;-75
2022/10/09 03:53:34;;;;;;;;;;;6.50;99.90;;;;;;5085416;28;19912;-75
2022/10/09 03:56:00;;;;;;;;;;;6.40;99.90;;;;;;5098528;28;19912;-75
2022/10/09 03:58:26;;;;;;;;;;;6.40;99.90;;;;;;5102669;28;19951;-75
2022/10/09 04:00:52;;;;;;;;;;;6.40;99.90;;;;;;5092562;28;19917;-75
2022/10/09 04:03:18;;;;;;;;;;;6.40;99.90;;;;;;5090538;28;19916;-75
2022/10/09 04:05:43;;;;;;;;;;;6.40;99.90;;;;;;5095461;28;19994;-75
2022/10/09 04:08:09;;;;;;;;;;;6.40;99.90;;;;;;5106488;28;20023;-74
2022/10/09 04:10:34;;;;;;;;;;;6.40;99.90;;;;;;5079365;28;19944;-74
2022/10/09 04:13:00;;;;;;;;;;;6.40;99.90;;;;;;5074759;28;19992;-74
2022/10/09 04:15:25;;;;;;;;;;;6.30;99.90;;;;;;5085390;28;20358;-74
2022/10/09 04:17:51;;;;;;;;;;;6.30;99.90;;;;;;5077467;28;19932;-74
2022/10/09 04:20:17;;;;;;;;;;;6.30;99.90;;;;;;5091131;28;19916;-74
2022/10/09 04:22:42;;;;;;;;;;;6.30;99.90;;;;;;5095055;28;19916;-75
2022/10/09 04:25:08;;;;;;;;;;;6.30;99.90;;;;;;5097277;28;19915;-74
2022/10/09 04:27:33;;;;;;;;;;;6.30;99.90;;;;;;5086943;28;19916;-75
2022/10/09 04:29:59;;;;;;;;;;;6.30;99.90;;;;;;5079757;28;20319;-74
2022/10/09 04:32:24;;;;;;;;;;;6.30;99.90;;;;;;5095643;28;19922;-75
2022/10/09 04:34:50;;;;;;;;;;;6.20;99.90;;;;;;5077948;28;19923;-73
2022/10/09 04:37:15;;;;;;;;;;;6.20;99.90;;;;;;5090616;28;19916;-73
2022/10/09 04:39:41;;;;;;;;;;;6.10;99.90;;;;;;5095539;28;19919;-75
2022/10/09 04:42:07;;;;;;;;;;;6.20;99.90;;;;;;5096866;28;19923;-73
2022/10/09 04:44:33;;;;;;;;;;;6.20;99.90;;;;;;5085961;28;19912;-73
2022/10/09 04:46:58;;;;;;;;;;;6.20;99.90;;;;;;5104995;28;19923;-74
2022/10/09 04:49:24;;;;;;;;;;;6.20;99.90;;;;;;5110375;28;20014;-74
2022/10/09 04:51:49;;;;;;;;;;;6.10;99.90;;;;;;5094097;28;19951;-73
2022/10/09 04:54:15;;;;;;;;;;;6.10;99.90;;;;;;5073893;28;19962;-73
2022/10/09 04:56:40;;;;;;;;;;;6.10;99.90;;;;;;5093915;28;19951;-73
2022/10/09 04:59:06;;;;;;;;;;;6.10;99.90;;;;;;5064770;28;20002;-73
2022/10/09 05:01:31;;;;;;;;;;;6.00;99.90;;;;;;5077505;28;19916;-73
2022/10/09 05:03:57;;;;;;;;;;;6.00;99.90;;;;;;5085357;28;19942;-73
2022/10/09 05:06:23;;;;;;;;;;;6.00;99.90;;;;;;5099576;28;19923;-76
2022/10/09 05:08:48;;;;;;;;;;;6.00;99.90;;;;;;5100815;28;19923;-73
2022/10/09 05:11:16;;;;;;;;;;;6.00;99.90;;;;;;5101816;28;19908;-74
2022/10/09 05:13:44;;;;;;;;;;;5.90;99.90;;;;;;5082596;28;19923;-74
2022/10/09 05:16:11;;;;;;;;;;;5.90;99.90;;;;;;5104295;28;19954;-73
2022/10/09 05:18:43;;;;;;;;;;;5.90;99.90;;;;;;5072764;28;20576;-73
2022/10/09 05:21:09;;;;;;;;;;;5.90;99.90;;;;;;5087756;28;19941;-74
2022/10/09 05:23:34;;;;;;;;;;;5.80;99.90;;;;;;5100281;28;19912;-73
2022/10/09 05:26:02;;;;;;;;;;;5.90;99.90;;;;;;5087496;28;19912;-73
2022/10/09 05:28:28;;;;;;;;;;;5.90;99.90;;;;;;5103194;28;20259;-73
2022/10/09 05:30:54;;;;;;;;;;;5.90;99.90;;;;;;5100680;28;20188;-74
2022/10/09 05:33:20;;;;;;;;;;;6.00;99.90;;;;;;5095187;28;19912;-73
2022/10/09 05:35:49;;;;;;;;;;;5.90;99.90;;;;;;5106611;28;19964;-73
2022/10/09 05:38:14;;;;;;;;;;;5.90;99.90;;;;;;5103022;28;20004;-74
2022/10/09 05:40:48;;;;;;;;;;;5.90;99.90;;;;;;5096228;28;20052;-72
2022/10/09 05:43:14;;;;;;;;;;;5.90;99.90;;;;;;5102523;28;19920;-72
2022/10/09 05:45:39;;;;;;;;;;;5.90;99.90;;;;;;5078837;28;19919;-73
2022/10/09 05:48:06;;;;;;;;;;;5.90;99.90;;;;;;5105653;28;19928;-73
2022/10/09 05:50:31;;;;;;;;;;;6.00;99.90;;;;;;5098497;28;19912;-72
2022/10/09 05:52:56;;;;;;;;;;;6.00;99.90;;;;;;5102449;28;20218;-73
2022/10/09 05:55:23;;;;;;;;;;;6.00;99.90;;;;;;5096677;28;19916;-75
2022/10/09 05:57:51;;;;;;;;;;;6.00;99.90;;;;;;5098000;28;19916;-72
2022/10/09 06:00:16;;;;;;;;;;;6.10;99.90;;;;;;5093335;28;19947;-73
2022/10/09 06:02:42;;;;;;;;;;;6.10;99.90;;;;;;5097623;28;20002;-73
2022/10/09 06:05:07;;;;;;;;;;;6.10;99.90;;;;;;5104194;28;20298;-74
2022/10/09 06:07:33;;;;;;;;;;;6.10;99.90;;;;;;5085398;28;19990;-74
2022/10/09 06:09:58;;;;;;;;;;;6.20;99.90;;;;;;5107733;28;19916;-72
2022/10/09 06:12:24;;;;;;;;;;;6.20;99.90;;;;;;5080184;28;20011;-72
2022/10/09 06:14:49;;;;;;;;;;;6.20;99.90;;;;;;5106289;28;19922;-72
2022/10/09 06:17:15;;;;;;;;;;;6.20;99.90;;;;;;5082530;28;20222;-73
2022/10/09 06:19:40;;;;;;;;;;;6.30;99.90;;;;;;5081918;28;20259;-72
2022/10/09 06:22:06;;;;;;;;;;;6.30;99.90;;;;;;5096251;28;20697;-75
2022/10/09 06:24:31;;;;;;;;;;;6.30;99.90;;;;;;5093931;28;20218;-74
2022/10/09 06:26:57;;;;;;;;;;;6.40;99.90;;;;;;5096510;28;20460;-74
2022/10/09 06:29:23;;;;;;;;;;;6.40;99.90;;;;;;5103148;28;19912;-74
2022/10/09 06:31:48;;;;;;;;;;;6.40;99.90;;;;;;5088388;28;19908;-73
2022/10/09 06:34:14;;;;;;;;;;;6.40;99.90;;;;;;5105834;28;19993;-73
2022/10/09 06:36:39;;;;;;;;;;;6.40;99.90;;;;;;5095256;28;19972;-73
2022/10/09 06:39:05;;;;;;;;;;;6.40;99.90;;;;;;5088217;28;20368;-73
2022/10/09 06:41:31;;;;;;;;;;;6.40;99.90;;;;;;5096205;28;19919;-72
2022/10/09 06:44:00;;;;;;;;;;;6.40;99.90;;;;;;5075370;28;19918;-73
2022/10/09 06:46:28;;;;;;;;;;;6.40;99.90;;;;;;5093494;28;19975;-73
2022/10/09 06:48:53;;;;;;;;;;;6.40;99.90;;;;;;5096204;28;19936;-73
2022/10/09 06:51:20;;;;;;;;;;;6.40;99.90;;;;;;5089092;28;20180;-74
2022/10/09 06:53:47;;;;;;;;;;;6.40;99.90;;;;;;5081510;28;19965;-73
2022/10/09 06:56:13;;;;;;;;;;;6.40;99.90;;;;;;5082080;28;19926;-74
2022/10/09 06:58:39;;;;;;;;;;;6.60;99.90;;;;;;5102324;28;20039;-74
2022/10/09 07:01:06;;;;;;;;;;;6.90;99.90;;;;;;5101631;28;20038;-72
2022/10/09 07:03:32;;;;;;;;;;;7.20;99.90;;;;;;5103875;28;19916;-73
2022/10/09 07:06:05;;;;;;;;;;;7.50;99.90;;;;;;5095682;28;19923;-73
2022/10/09 07:08:31;;;;;;;;;;;7.80;99.90;;;;;;5084293;28;20288;-73
2022/10/09 07:10:56;;;;;;;;;;;8.20;99.90;;;;;;5106094;28;19912;-73
2022/10/09 07:13:22;;;;;;;;;;;8.70;99.90;;;;;;5104718;28;19916;-73
2022/10/09 07:15:47;;;;;;;;;;;9.00;99.90;;;;;;5096800;28;19916;-74
2022/10/09 07:18:14;;;;;;;;;;;9.30;99.90;;;;;;5104538;28;19939;-75
2022/10/09 07:20:40;;;;;;;;;;;9.60;99.90;;;;;;5106787;28;20028;-74
2022/10/09 07:23:06;;;;;;;;;;;10.30;99.90;;;;;;5109732;28;20294;-74
2022/10/09 07:25:36;;;;;;;;;;;11.10;99.90;;;;;;5106492;28;20210;-74
2022/10/09 07:28:01;;;;;;;;;;;11.70;99.90;;;;;;5110835;28;19982;-74
2022/10/09 07:30:27;;;;;;;;;;;12.50;99.90;;;;;;5108219;28;20345;-74
2022/10/09 07:32:52;;;;;;;;;;;13.20;99.90;;;;;;5108796;28;19954;-74
2022/10/09 07:35:18;;;;;;;;;;;13.80;99.90;;;;;;5106911;28;20313;-74
2022/10/09 07:37:43;;;;;;;;;;;14.20;99.90;;;;;;5081097;28;20265;-74
2022/10/09 07:40:09;;;;;;;;;;;14.20;99.90;;;;;;5086177;28;20273;-74
2022/10/09 07:42:35;;;;;;;;;;;14.00;99.90;;;;;;5106504;28;20207;-74
2022/10/09 07:45:00;;;;;;;;;;;13.90;99.90;;;;;;5095680;28;20303;-74
2022/10/09 07:47:26;;;;;;;;;;;13.50;99.90;;;;;;5087909;28;20371;-74
2022/10/09 07:49:51;;;;;;;;;;;13.00;99.90;;;;;;5087060;28;20035;-74
2022/10/09 07:52:17;;;;;;;;;;;12.60;99.90;;;;;;5079826;28;19926;-73
2022/10/09 07:54:42;;;;;;;;;;;12.40;99.90;;;;;;5111210;28;19990;-75
2022/10/09 07:57:08;;;;;;;;;;;12.20;99.90;;;;;;5109060;28;19950;-73
2022/10/09 07:59:33;;;;;;;;;;;12.20;99.90;;;;;;5103501;28;19951;-73
2022/10/09 08:01:59;;;;;;;;;;;12.20;99.90;;;;;;5083572;28;19958;-73
2022/10/09 08:04:24;;;;;;;;;;;12.30;99.90;;;;;;5105016;28;19911;-73
2022/10/09 08:06:50;;;;;;;;;;;12.40;99.90;;;;;;5082344;28;19931;-74
2022/10/09 08:09:16;;;;;;;;;;;12.20;99.90;;;;;;5106762;28;20274;-74
2022/10/09 08:11:43;;;;;;;;;;;11.90;99.90;;;;;;5112820;28;20878;-74
2022/10/09 08:14:10;;;;;;;;;;;11.90;99.90;;;;;;5108760;28;19986;-74
2022/10/09 08:16:36;;;;;;;;;;;11.70;99.90;;;;;;5114641;28;19952;-75
2022/10/09 08:19:01;;;;;;;;;;;11.60;99.90;;;;;;5096122;28;20019;-75
2022/10/09 08:21:27;;;;;;;;;;;11.70;99.90;;;;;;5107835;28;19916;-73
2022/10/09 08:23:54;;;;;;;;;;;11.70;99.90;;;;;;5096279;28;19919;-75
2022/10/09 08:26:21;;;;;;;;;;;11.80;99.90;;;;;;5094460;28;20003;-73
2022/10/09 08:28:53;;;;;;;;;;;11.90;99.90;;;;;;5109956;28;19915;-74
2022/10/09 08:31:19;;;;;;;;;;;12.00;99.90;;;;;;5068533;28;20299;-73
2022/10/09 08:33:45;;;;;;;;;;;12.10;99.90;;;;;;5111843;28;19915;-74
2022/10/09 08:36:14;;;;;;;;;;;12.20;99.90;;;;;;5090025;28;20389;-75
2022/10/09 08:38:39;;;;;;;;;;;12.40;99.90;;;;;;5112685;28;20291;-74
2022/10/09 08:41:11;;;;;;;;;;;12.50;99.90;;;;;;5109796;28;19907;-75
2022/10/09 08:43:38;;;;;;;;;;;12.70;99.90;;;;;;5113308;28;19908;-75
2022/10/09 08:46:09;;;;;;;;;;;12.80;99.90;;;;;;5107146;28;19915;-78
2022/10/09 08:48:38;;;;;;;;;;;12.90;99.90;;;;;;5107854;28;19924;-74
2022/10/09 08:51:04;;;;;;;;;;;13.00;99.90;;;;;;5091048;28;19931;-74
2022/10/09 08:53:46;;;;;;;;;;;13.30;99.90;;;;;;5102713;28;20276;-74
2022/10/09 08:56:13;;;;;;;;;;;13.70;99.90;;;;;;5111706;28;20217;-74
2022/10/09 08:58:39;;;;;;;;;;;14.00;99.90;;;;;;5114253;28;19918;-74
2022/10/09 09:01:14;;;;;;;;;;;14.20;99.90;;;;;;5109469;28;19955;-75
2022/10/09 09:03:43;;;;;;;;;;;14.30;99.90;;;;;;5058304;28;20307;-74
2022/10/09 09:06:16;;;;;;;;;;;14.30;99.90;;;;;;5109881;28;19916;-74
2022/10/09 09:08:51;;;;;;;;;;;14.40;99.90;;;;;;5107964;28;19916;-74
2022/10/09 09:11:19;;;;;;;;;;;14.40;99.90;;;;;;5110314;28;19915;-74
2022/10/09 09:14:01;;;;;;;;;;;14.50;99.90;;;;;;5113560;28;19914;-74
2022/10/09 09:16:39;;;;;;;;;;;14.70;99.90;;;;;;5105257;28;20010;-74
2022/10/09 09:19:14;;;;;;;;;;;15.10;99.90;;;;;;5103623;28;19939;-75
2022/10/09 09:21:46;;;;;;;;;;;15.20;99.90;;;;;;5105981;28;19912;-75
2022/10/09 09:24:17;;;;;;;;;;;15.30;99.90;;;;;;5108506;28;19916;-74
2022/10/09 09:26:44;;;;;;;;;;;15.30;99.90;;;;;;5105645;28;19955;-76
2022/10/09 09:29:11;;;;;;;;;;;15.30;99.90;;;;;;5091732;28;19907;-75
2022/10/09 09:31:37;;;;;;;;;;;15.30;99.90;;;;;;5107038;28;19912;-75
2022/10/09 09:34:08;;;;;;;;;;;15.20;99.90;;;;;;5085833;28;19916;-74
2022/10/09 09:36:39;;;;;;;;;;;15.20;99.90;;;;;;5100676;28;19935;-74
2022/10/09 09:39:04;;;;;;;;;;;15.30;99.90;;;;;;5099519;28;20330;-74
2022/10/09 09:41:30;;;;;;;;;;;15.40;99.90;;;;;;5102291;28;20003;-75
2022/10/09 09:43:55;;;;;;;;;;;15.50;99.90;;;;;;5103549;28;20009;-75
2022/10/09 09:46:24;;;;;;;;;;;15.60;99.90;;;;;;5093005;28;19912;-74
2022/10/09 09:48:50;;;;;;;;;;;15.80;99.90;;;;;;5107364;28;19919;-74
2022/10/09 09:51:20;;;;;;;;;;;16.00;99.90;;;;;;5099681;28;20313;-75
2022/10/09 09:53:48;;;;;;;;;;;15.80;99.90;;;;;;5104292;28;19907;-74
2022/10/09 09:56:14;;;;;;;;;;;15.50;99.90;;;;;;5107677;28;19912;-74
2022/10/09 09:58:44;;;;;;;;;;;15.30;99.90;;;;;;5113169;28;20011;-75
2022/10/09 10:01:23;;;;;;;;;;;15.20;99.90;;;;;;5098791;28;20257;-74
2022/10/09 10:03:49;;;;;;;;;;;15.10;99.90;;;;;;5098093;28;19923;-74
2022/10/09 10:06:19;;;;;;;;;;;15.00;99.90;;;;;;5094824;28;20224;-75
2022/10/09 10:08:45;;;;;;;;;;;15.00;99.90;;;;;;5094744;28;19984;-74
2022/10/09 10:11:15;;;;;;;;;;;14.90;99.90;;;;;;5104294;28;19951;-74
2022/10/09 10:13:48;;;;;;;;;;;14.90;99.90;;;;;;5110069;28;20298;-75
2022/10/09 10:16:23;;;;;;;;;;;14.90;99.90;;;;;;5108582;28;19908;-74
2022/10/09 10:18:49;;;;;;;;;;;15.00;99.90;;;;;;5102306;28;19920;-73
2022/10/09 10:21:16;;;;;;;;;;;15.00;99.90;;;;;;5092107;28;19912;-74
2022/10/09 10:23:41;;;;;;;;;;;14.90;99.90;;;;;;5095377;28;19915;-75
2022/10/09 10:26:07;;;;;;;;;;;15.00;99.90;;;;;;5100359;28;19920;-75
2022/10/09 10:28:36;;;;;;;;;;;15.00;99.90;;;;;;5106824;28;19915;-74
2022/10/09 10:31:03;;;;;;;;;;;15.00;99.90;;;;;;5097607;28;20318;-75
2022/10/09 10:33:30;;;;;;;;;;;15.00;99.90;;;;;;5100205;28;19925;-75
2022/10/09 10:35:56;;;;;;;;;;;15.10;99.90;;;;;;5111375;28;19922;-74
2022/10/09 10:38:22;;;;;;;;;;;15.10;99.90;;;;;;5097226;28;19919;-74
2022/10/09 10:41:06;;;;;;;;;;;15.10;99.90;;;;;;5098045;28;19915;-74
2022/10/09 10:43:43;;;;;;;;;;;15.20;99.90;;;;;;5113184;28;19915;-75
2022/10/09 10:46:08;;;;;;;;;;;15.20;99.90;;;;;;5112906;28;19912;-74
2022/10/09 10:48:42;;;;;;;;;;;15.30;99.90;;;;;;5094263;28;20196;-74
2022/10/09 10:51:12;;;;;;;;;;;15.30;99.90;;;;;;5089662;28;19923;-75
2022/10/09 10:53:38;;;;;;;;;;;15.40;99.90;;;;;;5092568;28;20247;-74
2022/10/09 10:56:12;;;;;;;;;;;15.30;99.90;;;;;;5094020;28;20050;-73
2022/10/09 10:59:10;;;;;;;;;;;15.30;99.90;;;;;;5084027;28;19916;-74
2022/10/09 11:01:51;;;;;;;;;;;15.40;99.90;;;;;;5053611;28;19963;-74
2022/10/09 11:04:32;;;;;;;;;;;15.40;99.90;;;;;;5095162;28;19935;-74
2022/10/09 11:07:03;;;;;;;;;;;15.50;99.90;;;;;;5096416;28;20747;-76
2022/10/09 11:09:32;;;;;;;;;;;15.50;99.90;;;;;;5094588;28;19915;-74
2022/10/09 11:12:03;;;;;;;;;;;15.60;99.90;;;;;;5088039;28;20003;-75
2022/10/09 11:14:31;;;;;;;;;;;15.60;99.90;;;;;;5068618;28;19923;-76
2022/10/09 11:17:00;;;;;;;;;;;15.70;99.90;;;;;;5067523;28;19920;-75
2022/10/09 11:19:35;;;;;;;;;;;15.70;99.90;;;;;;5075813;28;20006;-74
2022/10/09 11:22:19;;;;;;;;;;;15.80;99.90;;;;;;5075859;28;19908;-74
2022/10/09 11:24:45;;;;;;;;;;;15.90;99.90;;;;;;5089764;28;19919;-74
2022/10/09 11:27:30;;;;;;;;;;;16.00;99.90;;;;;;5078880;28;19912;-75
2022/10/09 11:30:03;;;;;;;;;;;16.00;99.90;;;;;;5083711;28;19965;-74
2022/10/09 11:32:49;;;;;;;;;;;16.10;99.90;;;;;;5084480;28;19921;-73
2022/10/09 11:35:19;;;;;;;;;;;16.20;99.90;;;;;;5087762;28;19951;-73
2022/10/09 11:37:48;;;;;;;;;;;16.30;99.90;;;;;;5083237;28;19959;-74
2022/10/09 11:40:15;;;;;;;;;;;16.40;99.90;;;;;;5086567;28;19931;-75
2022/10/09 11:42:41;;;;;;;;;;;16.60;99.90;;;;;;5090757;28;19912;-74
2022/10/09 11:45:30;;;;;;;;;;;16.60;99.90;;;;;;5092323;28;19912;-75
2022/10/09 11:48:02;;;;;;;;;;;16.80;99.90;;;;;;5084625;28;20339;-72
2022/10/09 11:50:27;;;;;;;;;;;16.90;99.90;;;;;;5085746;28;19969;-78
2022/10/09 11:52:53;;;;;;;;;;;17.00;99.90;;;;;;5085436;28;19912;-74
2022/10/09 11:55:26;;;;;;;;;;;17.10;99.90;;;;;;5091035;28;19923;-73
2022/10/09 11:57:52;;;;;;;;;;;17.20;99.90;;;;;;5083753;28;19913;-73
2022/10/09 12:00:28;;;;;;;;;;;17.30;99.90;;;;;;5088115;28;20338;-75
2022/10/09 12:02:56;;;;;;;;;;;17.40;99.90;;;;;;5084755;28;20266;-74
2022/10/09 12:05:37;;;;;;;;;;;17.50;99.90;;;;;;5089175;28;20277;-74
2022/10/09 12:08:09;;;;;;;;;;;17.50;99.90;;;;;;5084305;28;19916;-72
2022/10/09 12:10:38;;;;;;;;;;;17.40;99.90;;;;;;5087247;28;19916;-75
2022/10/09 12:13:05;;;;;;;;;;;17.40;99.90;;;;;;5089291;28;20299;-73
2022/10/09 12:15:48;;;;;;;;;;;17.40;99.90;;;;;;5083944;28;19912;-74
2022/10/09 12:18:20;;;;;;;;;;;17.40;99.90;;;;;;5080911;28;19920;-74
2022/10/09 12:20:47;;;;;;;;;;;17.40;99.90;;;;;;5076027;28;20268;-73
2022/10/09 12:23:16;;;;;;;;;;;17.40;99.90;;;;;;5088064;28;19954;-72
2022/10/09 12:25:42;;;;;;;;;;;17.50;99.90;;;;;;5086612;28;20011;-75
2022/10/09 12:28:17;;;;;;;;;;;17.60;99.90;;;;;;5084736;28;19957;-73
2022/10/09 12:30:46;;;;;;;;;;;17.70;99.90;;;;;;5078193;28;20342;-74
2022/10/09 12:33:20;;;;;;;;;;;17.80;99.90;;;;;;5082553;28;19912;-75
2022/10/09 12:35:46;;;;;;;;;;;17.90;99.90;;;;;;5073800;28;20321;-74
2022/10/09 12:38:28;;;;;;;;;;;17.80;99.20;;;;;;5081316;28;20012;-73
2022/10/09 12:40:56;;;;;;;;;;;17.70;99.50;;;;;;5073678;28;19958;-74
2022/10/09 12:43:22;;;;;;;;;;;17.80;99.90;;;;;;5078741;28;19920;-73
2022/10/09 12:45:49;;;;;;;;;;;17.90;99.90;;;;;;5086627;28;19909;-73
2022/10/09 12:48:19;;;;;;;;;;;17.70;99.40;;;;;;5097527;28;19926;-72
2022/10/09 12:50:45;;;;;;;;;;;17.60;99.10;;;;;;5103905;28;19938;-73
2022/10/09 12:53:21;;;;;;;;;;;17.50;98.80;;;;;;5104493;28;19908;-73
2022/10/09 12:55:52;;;;;;;;;;;17.40;99.50;;;;;;5101890;28;19951;-73
2022/10/09 12:58:28;;;;;;;;;;;17.50;99.90;;;;;;5095911;28;20014;-73
2022/10/09 13:00:55;;;;;;;;;;;17.50;99.90;;;;;;5106793;28;19911;-73
2022/10/09 13:03:25;;;;;;;;;;;17.70;99.90;;;;;;5107917;28;19956;-73
2022/10/09 13:05:51;;;;;;;;;;;17.70;99.90;;;;;;5098036;28;20000;-72
2022/10/09 13:08:22;;;;;;;;;;;17.80;99.90;;;;;;5100063;28;20006;-74
2022/10/09 13:10:48;;;;;;;;;;;17.90;99.90;;;;;;5103037;28;20303;-74
2022/10/09 13:13:25;;;;;;;;;;;17.90;99.90;;;;;;5099590;28;19961;-74
2022/10/09 13:15:58;;;;;;;;;;;18.00;99.90;;;;;;5088068;28;19911;-73
2022/10/09 13:18:23;;;;;;;;;;;17.90;99.90;;;;;;5093834;28;19915;-73
2022/10/09 13:20:58;;;;;;;;;;;17.80;99.90;;;;;;5069266;28;19909;-72
2022/10/09 13:23:25;;;;;;;;;;;17.70;99.90;;;;;;5092184;28;20192;-76
2022/10/09 13:25:51;;;;;;;;;;;17.60;99.40;;;;;;5068126;28;19920;-74
2022/10/09 13:28:18;;;;;;;;;;;17.50;99.80;;;;;;5096831;28;20208;-73
2022/10/09 13:30:44;;;;;;;;;;;17.40;99.90;;;;;;5085867;28;19999;-73
2022/10/09 13:33:13;;;;;;;;;;;17.40;99.90;;;;;;5076259;28;20007;-74
2022/10/09 13:35:39;;;;;;;;;;;17.30;99.80;;;;;;5075919;28;19920;-76
2022/10/09 13:38:05;;;;;;;;;;;17.30;99.70;;;;;;5093884;28;20394;-74
2022/10/09 13:40:30;;;;;;;;;;;17.20;99.90;;;;;;5094164;28;19919;-74
2022/10/09 13:43:00;;;;;;;;;;;17.10;99.90;;;;;;5080896;28;19916;-73
2022/10/09 13:45:25;;;;;;;;;;;17.30;99.90;;;;;;5077261;28;19908;-74
2022/10/09 13:47:51;;;;;;;;;;;17.40;99.90;;;;;;5086348;28;19969;-74
2022/10/09 13:50:18;;;;;;;;;;;17.40;99.90;;;;;;5070307;28;19916;-75
2022/10/09 13:52:44;;;;;;;;;;;17.40;99.90;;;;;;5088798;28;19915;-75
2022/10/09 13:55:09;;;;;;;;;;;17.40;99.90;;;;;;5081820;28;19909;-74
2022/10/09 13:57:35;;;;;;;;;;;17.40;99.90;;;;;;5088579;28;20318;-73
2022/10/09 14:00:01;;;;;;;;;;;17.40;99.90;;;;;;5077366;28;20222;-73
2022/10/09 14:02:26;;;;;;;;;;;17.50;99.90;;;;;;5089068;28;20639;-73
2022/10/09 14:04:52;;;;;;;;;;;17.50;99.90;;;;;;5095489;28;20410;-74
2022/10/09 14:07:17;;;;;;;;;;;17.30;99.90;;;;;;5095235;28;19916;-74
2022/10/09 14:09:43;;;;;;;;;;;17.10;99.90;;;;;;5089431;28;19912;-74
2022/10/09 14:12:08;;;;;;;;;;;16.90;99.90;;;;;;5091514;28;19931;-74
2022/10/09 14:14:34;;;;;;;;;;;16.80;99.90;;;;;;5094392;28;19999;-74
2022/10/09 14:17:00;;;;;;;;;;;16.70;99.90;;;;;;5086979;28;19916;-75
2022/10/09 14:19:26;;;;;;;;;;;16.70;99.90;;;;;;5089599;28;19908;-75
2022/10/09 14:21:53;;;;;;;;;;;16.60;99.90;;;;;;5090900;28;20041;-75
2022/10/09 14:24:18;;;;;;;;;;;16.60;99.90;;;;;;5081411;28;20003;-75
2022/10/09 14:26:44;;;;;;;;;;;16.50;99.90;;;;;;5092351;28;20399;-74